createdAt,value
2023-05-10T00:01:55.971Z,100824.41
2023-05-10T00:04:28.157Z,100834.50
2023-05-10T00:06:56.459Z,100830.94
2023-05-10T00:09:24.654Z,100829.78
2023-05-10T00:11:52.983Z,100835.22
2023-05-10T00:14:22.543Z,100834.06
2023-05-10T00:16:50.963Z,100827.84
2023-05-10T00:19:19.478Z,100832.50
2023-05-10T00:21:47.668Z,100832.50
2023-05-10T00:24:15.889Z,100833.66
2023-05-10T00:26:44.193Z,100829.78
2023-05-10T00:29:12.366Z,100839.84
2023-05-10T00:31:42.002Z,100830.88
2023-05-10T00:34:10.292Z,100835.53
2023-05-10T00:36:38.483Z,100834.38
2023-05-10T00:39:07.401Z,100830.88
2023-05-10T00:41:35.617Z,100823.50
2023-05-10T00:44:03.878Z,100835.97
2023-05-10T00:46:32.679Z,100819.63
2023-05-10T00:49:02.585Z,100837.53
2023-05-10T00:51:32.237Z,100829.34
2023-05-10T00:54:01.166Z,100830.13
2023-05-10T00:56:30.744Z,100822.72
2023-05-10T00:58:59.053Z,100835.91
2023-05-10T01:01:27.440Z,100830.03
2023-05-10T01:03:56.742Z,100828.81
2023-05-10T01:06:26.371Z,100831.16
2023-05-10T01:08:54.601Z,100825.72
2023-05-10T01:11:23.020Z,100829.66
2023-05-10T01:13:58.973Z,100820.69
2023-05-10T01:16:28.953Z,100825.06
2023-05-10T01:18:57.284Z,100816.47
2023-05-10T01:21:39.629Z,100816.47
2023-05-10T01:24:42.640Z,100817.63
2023-05-10T01:28:02.873Z,100824.63
2023-05-10T01:31:04.751Z,100814.19
2023-05-10T01:33:41.674Z,100823.06
2023-05-10T01:36:20.507Z,100819.63
2023-05-10T01:38:55.374Z,100819.63
2023-05-10T01:41:35.419Z,100826.63
2023-05-10T01:44:12.144Z,100821.19
2023-05-10T01:46:42.453Z,100825.06
2023-05-10T01:49:19.245Z,100814.19
2023-05-10T01:51:55.720Z,100827.34
2023-05-10T01:54:26.814Z,100828.13
2023-05-10T01:56:59.690Z,100829.28
2023-05-10T01:59:34.069Z,100838.59
2023-05-10T02:02:04.307Z,100837.47
2023-05-10T02:04:35.490Z,100828.91
2023-05-10T02:07:04.364Z,100835.91
2023-05-10T02:09:34.471Z,100825.00
2023-05-10T02:12:05.260Z,100825.78
2023-05-10T02:14:37.833Z,100832.41
2023-05-10T02:17:08.749Z,100826.94
2023-05-10T02:19:41.121Z,100832.03
2023-05-10T02:22:11.804Z,100825.41
2023-05-10T02:24:41.892Z,100831.63
2023-05-10T02:27:12.103Z,100833.63
2023-05-10T02:29:41.217Z,100835.94
2023-05-10T02:32:10.883Z,100841.78
2023-05-10T02:34:41.763Z,100842.56
2023-05-10T02:37:11.027Z,100835.19
2023-05-10T02:39:44.560Z,100840.25
2023-05-10T02:42:20.373Z,100842.56
2023-05-10T02:44:53.163Z,100848.06
2023-05-10T02:47:22.108Z,100851.16
2023-05-10T02:49:51.756Z,100832.50
2023-05-10T02:52:28.380Z,100839.94
2023-05-10T02:55:01.487Z,100852.28
2023-05-10T02:57:34.796Z,100842.97
2023-05-10T03:00:04.271Z,100852.34
2023-05-10T03:02:32.955Z,100850.00
2023-05-10T03:05:02.611Z,100851.56
2023-05-10T03:07:31.216Z,100846.13
2023-05-10T03:09:59.425Z,100854.66
2023-05-10T03:12:49.620Z,100846.91
2023-05-10T03:15:29.120Z,100851.16
2023-05-10T03:18:04.029Z,100851.16
2023-05-10T03:20:38.284Z,100851.16
2023-05-10T03:23:13.613Z,100853.88
2023-05-10T03:25:42.417Z,100861.66
2023-05-10T03:28:11.611Z,100863.59
2023-05-10T03:30:41.524Z,100869.38
2023-05-10T03:33:09.941Z,100871.72
2023-05-10T03:35:39.821Z,100874.09
2023-05-10T03:38:07.980Z,100874.88
2023-05-10T03:40:36.263Z,100879.94
2023-05-10T03:43:04.509Z,100877.63
2023-05-10T03:45:33.014Z,100885.03
2023-05-10T03:48:01.385Z,100877.25
2023-05-10T03:50:29.843Z,100870.16
2023-05-10T03:52:59.383Z,100884.94
2023-05-10T03:55:27.722Z,100881.00
2023-05-10T03:57:55.946Z,100880.56
2023-05-10T04:00:24.252Z,100883.72
2023-05-10T04:02:52.458Z,100884.84
2023-05-10T04:05:20.696Z,100893.00
2023-05-10T04:07:50.310Z,100886.00
2023-05-10T04:10:20.074Z,100881.00
2023-05-10T04:12:48.424Z,100884.44
2023-05-10T04:15:16.854Z,100889.50
2023-05-10T04:17:45.056Z,100893.44
2023-05-10T04:20:14.673Z,100893.44
2023-05-10T04:22:43.081Z,100892.66
2023-05-10T04:25:11.758Z,100897.31
2023-05-10T04:27:41.336Z,100896.16
2023-05-10T04:30:10.935Z,100896.19
2023-05-10T04:32:39.189Z,100906.31
2023-05-10T04:35:08.291Z,100904.34
2023-05-10T04:37:37.463Z,100898.53
2023-05-10T04:40:07.519Z,100899.69
2023-05-10T04:42:35.734Z,100899.31
2023-05-10T04:45:08.502Z,100906.78
2023-05-10T04:47:37.986Z,100906.31
2023-05-10T04:50:08.260Z,100900.41
2023-05-10T04:52:37.408Z,100907.47
2023-05-10T04:55:08.397Z,100905.09
2023-05-10T04:57:36.559Z,100899.66
2023-05-10T05:00:08.217Z,100902.75
2023-05-10T05:02:36.494Z,100904.31
2023-05-10T05:05:05.094Z,100898.09
2023-05-10T05:07:33.306Z,100905.91
2023-05-10T05:10:01.511Z,100909.00
2023-05-10T05:12:29.753Z,100905.84
2023-05-10T05:14:58.016Z,100916.00
2023-05-10T05:17:27.721Z,100912.50
2023-05-10T05:19:56.775Z,100916.38
2023-05-10T05:22:28.541Z,100924.09
2023-05-10T05:24:57.520Z,100917.50
2023-05-10T05:27:27.284Z,100919.09
2023-05-10T05:29:56.127Z,100929.19
2023-05-10T05:32:24.996Z,100931.41
2023-05-10T05:34:54.697Z,100936.13
2023-05-10T05:37:23.559Z,100935.34
2023-05-10T05:39:51.942Z,100934.56
2023-05-10T05:42:20.166Z,100929.97
2023-05-10T05:44:49.166Z,100934.63
2023-05-10T05:47:17.422Z,100937.00
2023-05-10T05:49:46.919Z,100941.31
2023-05-10T05:52:16.667Z,100944.88
2023-05-10T05:54:45.075Z,100953.38
2023-05-10T05:57:13.370Z,100951.03
2023-05-10T05:59:44.856Z,100953.75
2023-05-10T06:02:14.965Z,100955.31
2023-05-10T06:04:44.804Z,100966.63
2023-05-10T06:07:13.139Z,100966.56
2023-05-10T06:09:42.770Z,100970.44
2023-05-10T06:12:11.002Z,100964.25
2023-05-10T06:14:39.187Z,100961.56
2023-05-10T06:17:07.878Z,100977.13
2023-05-10T06:19:36.713Z,100976.69
2023-05-10T06:22:05.091Z,100979.81
2023-05-10T06:24:33.474Z,100979.41
2023-05-10T06:27:03.124Z,100977.84
2023-05-10T06:29:31.316Z,100982.91
2023-05-10T06:31:59.742Z,100982.13
2023-05-10T06:34:28.283Z,100993.00
2023-05-10T06:36:56.473Z,100982.47
2023-05-10T06:39:24.756Z,100981.66
2023-05-10T06:41:53.204Z,100992.22
2023-05-10T06:44:22.866Z,100991.44
2023-05-10T06:46:51.648Z,100995.72
2023-05-10T06:49:20.129Z,100989.56
2023-05-10T06:51:48.333Z,100989.94
2023-05-10T06:54:16.878Z,100999.28
2023-05-10T06:56:45.096Z,101002.47
2023-05-10T06:59:14.613Z,100997.75
2023-05-10T07:01:44.178Z,101010.97
2023-05-10T07:04:12.400Z,101009.78
2023-05-10T07:06:40.630Z,101011.72
2023-05-10T07:09:08.961Z,101003.97
2023-05-10T07:11:38.440Z,101009.00
2023-05-10T07:14:06.688Z,101011.34
2023-05-10T07:16:35.294Z,101007.03
2023-05-10T07:19:06.350Z,101012.50
2023-05-10T07:21:34.519Z,101014.13
2023-05-10T07:24:02.951Z,101014.91
2023-05-10T07:26:31.202Z,101015.66
2023-05-10T07:28:59.359Z,101018.81
2023-05-10T07:31:27.597Z,101019.22
2023-05-10T07:33:55.846Z,101021.19
2023-05-10T07:36:25.402Z,101023.97
2023-05-10T07:38:53.626Z,101024.34
2023-05-10T07:41:22.140Z,101022.81
2023-05-10T07:43:50.350Z,101028.19
2023-05-10T07:46:20.362Z,101030.84
2023-05-10T07:48:48.658Z,101031.25
2023-05-10T07:51:16.912Z,101033.97
2023-05-10T07:53:46.498Z,101041.34
2023-05-10T07:56:28.182Z,101032.66
2023-05-10T07:58:57.381Z,101033.50
2023-05-10T08:01:25.953Z,101032.78
2023-05-10T08:03:54.708Z,101037.53
2023-05-10T08:06:23.374Z,101044.53
2023-05-10T08:08:54.560Z,101048.47
2023-05-10T08:11:23.029Z,101044.19
2023-05-10T08:13:52.706Z,101047.66
2023-05-10T08:16:21.110Z,101053.16
2023-05-10T08:18:50.297Z,101064.09
2023-05-10T08:21:18.554Z,101056.31
2023-05-10T08:23:46.765Z,101068.69
2023-05-10T08:26:16.476Z,101069.81
2023-05-10T08:28:44.689Z,101069.03
2023-05-10T08:31:12.926Z,101071.03
2023-05-10T08:33:42.395Z,101073.34
2023-05-10T08:36:15.141Z,101075.72
2023-05-10T08:38:43.374Z,101077.97
2023-05-10T08:41:13.242Z,101080.25
2023-05-10T08:43:47.098Z,101081.81
2023-05-10T08:46:18.655Z,101081.50
2023-05-10T08:48:48.188Z,101081.94
2023-05-10T08:51:20.600Z,101084.66
2023-05-10T08:53:49.327Z,101089.19
2023-05-10T08:56:18.823Z,101086.13
2023-05-10T08:58:49.901Z,101090.84
2023-05-10T09:01:19.224Z,101089.72
2023-05-10T09:03:49.028Z,101087.41
2023-05-10T09:06:17.473Z,101091.34
2023-05-10T09:08:47.114Z,101100.69
2023-05-10T09:11:15.336Z,101100.63
2023-05-10T09:13:45.529Z,101100.63
2023-05-10T09:18:48.509Z,101109.97
2023-05-10T09:21:16.868Z,101115.06
2023-05-10T09:23:48.186Z,101117.78
2023-05-10T09:26:17.039Z,101117.66
2023-05-10T09:28:56.487Z,101121.53
2023-05-10T09:31:26.875Z,101128.09
2023-05-10T09:33:55.913Z,101123.81
2023-05-10T09:36:24.061Z,101117.63
2023-05-10T09:38:54.544Z,101128.56
2023-05-10T09:41:24.757Z,101130.94
2023-05-10T09:43:58.044Z,101138.66
2023-05-10T09:46:27.813Z,101146.41
2023-05-10T09:48:56.061Z,101140.88
2023-05-10T09:51:27.880Z,101144.38
2023-05-10T09:54:12.600Z,101142.84
2023-05-10T09:56:41.529Z,101156.16
2023-05-10T09:59:12.502Z,101146.41
2023-05-10T10:01:43.259Z,101151.84
2023-05-10T10:04:12.570Z,101154.66
2023-05-10T10:06:41.705Z,101154.66
2023-05-10T10:09:10.862Z,101152.75
2023-05-10T10:11:42.328Z,101154.75
2023-05-10T10:14:10.605Z,101152.84
2023-05-10T10:16:45.929Z,101153.66
2023-05-10T10:19:22.164Z,101157.59
2023-05-10T10:21:51.362Z,101157.59
2023-05-10T10:24:19.992Z,101149.78
2023-05-10T10:26:49.464Z,101154.50
2023-05-10T10:29:26.388Z,101159.59
2023-05-10T10:32:05.842Z,101148.38
2023-05-10T10:34:35.940Z,101151.91
2023-05-10T10:37:07.833Z,101153.50
2023-05-10T10:39:37.762Z,101151.97
2023-05-10T10:42:07.621Z,101155.13
2023-05-10T10:44:40.307Z,101151.63
2023-05-10T10:47:25.633Z,101154.78
2023-05-10T10:50:06.271Z,101151.63
2023-05-10T10:52:36.261Z,101158.69
2023-05-10T10:55:09.211Z,101151.69
2023-05-10T10:57:48.088Z,101159.91
2023-05-10T11:00:31.825Z,101153.72
2023-05-10T11:03:02.677Z,101155.31
2023-05-10T11:05:41.753Z,101157.69
2023-05-10T11:08:20.395Z,101155.78
2023-05-10T11:10:55.135Z,101161.63
2023-05-10T11:13:31.392Z,101160.50
2023-05-10T11:16:00.844Z,101164.06
2023-05-10T11:18:30.729Z,101164.09
2023-05-10T11:21:04.297Z,101159.78
2023-05-10T11:23:34.238Z,101155.13
2023-05-10T11:26:03.104Z,101153.97
2023-05-10T11:28:31.429Z,101165.31
2023-05-10T11:30:59.903Z,101165.31
2023-05-10T11:33:28.133Z,101162.19
2023-05-10T11:35:56.366Z,101162.56
2023-05-10T11:38:25.946Z,101165.75
2023-05-10T11:40:55.475Z,101163.78
2023-05-10T11:43:29.148Z,101158.34
2023-05-10T11:45:57.520Z,101150.59
2023-05-10T11:48:25.849Z,101161.50
2023-05-10T11:50:58.071Z,101161.94
2023-05-10T11:53:28.640Z,101156.09
2023-05-10T11:55:56.929Z,101163.13
2023-05-10T11:58:25.469Z,101166.28
2023-05-10T12:00:53.753Z,101160.91
2023-05-10T12:03:22.213Z,101157.81
2023-05-10T12:05:50.611Z,101155.91
2023-05-10T12:08:23.638Z,101164.16
2023-05-10T12:10:53.496Z,101159.94
2023-05-10T12:13:22.717Z,101150.25
2023-05-10T12:15:50.932Z,101151.81
2023-05-10T12:18:26.682Z,101155.72
2023-05-10T12:20:55.743Z,101159.25
2023-05-10T12:23:24.010Z,101160.03
2023-05-10T12:25:54.958Z,101155.75
2023-05-10T12:28:23.175Z,101155.00
2023-05-10T12:30:55.453Z,101162.81
2023-05-10T12:33:23.706Z,101156.16
2023-05-10T12:35:54.148Z,101159.28
2023-05-10T12:38:30.363Z,101160.44
2023-05-10T12:41:01.031Z,101161.22
2023-05-10T12:43:29.404Z,101158.09
2023-05-10T12:45:57.899Z,101165.91
2023-05-10T12:48:26.757Z,101165.53
2023-05-10T12:50:54.933Z,101164.34
2023-05-10T12:53:23.177Z,101157.31
2023-05-10T12:55:51.400Z,101159.28
2023-05-10T12:58:34.814Z,101162.78
2023-05-10T13:01:05.258Z,101167.47
2023-05-10T13:03:33.618Z,101169.81
2023-05-10T13:06:02.061Z,101170.63
2023-05-10T13:08:34.334Z,101165.16
2023-05-10T13:11:03.165Z,101171.00
2023-05-10T13:13:32.765Z,101174.13
2023-05-10T13:16:00.983Z,101164.34
2023-05-10T13:18:29.203Z,101177.63
2023-05-10T13:20:57.694Z,101171.75
2023-05-10T13:23:25.976Z,101181.13
2023-05-10T13:25:54.223Z,101175.25
2023-05-10T13:28:22.445Z,101169.78
2023-05-10T13:30:52.029Z,101176.81
2023-05-10T13:33:20.226Z,101176.81
2023-05-10T13:35:48.473Z,101183.88
2023-05-10T13:38:16.651Z,101170.63
2023-05-10T13:40:44.858Z,101172.94
2023-05-10T13:43:13.050Z,101181.56
2023-05-10T13:45:41.313Z,101174.91
2023-05-10T13:48:10.929Z,101172.13
2023-05-10T13:50:39.533Z,101165.03
2023-05-10T13:53:07.738Z,101160.72
2023-05-10T13:55:36.089Z,101161.84
2023-05-10T13:58:04.307Z,101161.84
2023-05-10T14:00:32.904Z,101163.44
2023-05-10T14:03:01.584Z,101167.69
2023-05-10T14:05:31.423Z,101157.47
2023-05-10T14:07:59.633Z,101164.16
2023-05-10T14:10:27.865Z,101173.53
2023-05-10T14:12:56.367Z,101168.47
2023-05-10T14:15:24.780Z,101168.09
2023-05-10T14:17:53.034Z,101157.16
2023-05-10T14:20:21.268Z,101161.47
2023-05-10T14:22:50.904Z,101166.53
2023-05-10T14:25:20.006Z,101179.03
2023-05-10T14:27:49.371Z,101180.19
2023-05-10T14:30:17.664Z,101183.72
2023-05-10T14:32:46.120Z,101173.16
2023-05-10T14:35:16.846Z,101181.38
2023-05-10T14:37:46.806Z,101177.47
2023-05-10T14:40:18.028Z,101190.03
2023-05-10T14:42:46.338Z,101190.06
2023-05-10T14:45:14.921Z,101192.44
2023-05-10T14:47:43.246Z,101184.63
2023-05-10T14:50:18.807Z,101189.75
2023-05-10T14:52:53.079Z,101199.53
2023-05-10T14:55:22.672Z,101202.63
2023-05-10T14:57:51.654Z,101205.41
2023-05-10T15:00:21.112Z,101207.72
2023-05-10T15:02:50.068Z,101208.88
2023-05-10T15:05:19.010Z,101203.44
2023-05-10T15:07:47.839Z,101201.47
2023-05-10T15:10:17.332Z,101208.91
2023-05-10T15:12:46.921Z,101216.66
2023-05-10T15:15:15.290Z,101219.00
2023-05-10T15:17:43.898Z,101215.47
2023-05-10T15:20:12.958Z,101222.91
2023-05-10T15:22:41.165Z,101223.69
2023-05-10T15:25:10.707Z,101228.34
2023-05-10T15:27:39.108Z,101227.56
2023-05-10T15:30:10.673Z,101225.19
2023-05-10T15:32:41.013Z,101226.72
2023-05-10T15:35:11.405Z,101231.03
2023-05-10T15:37:40.051Z,101221.25
2023-05-10T15:40:09.765Z,101224.75
2023-05-10T15:42:38.027Z,101233.28
2023-05-10T15:45:09.620Z,101236.28
2023-05-10T15:47:40.262Z,101239.69
2023-05-10T15:50:09.921Z,101241.19
2023-05-10T15:52:38.223Z,101243.44
2023-05-10T15:55:12.719Z,101241.81
2023-05-10T15:57:41.442Z,101253.44
2023-05-10T16:00:13.803Z,101247.94
2023-05-10T16:02:42.867Z,101248.34
2023-05-10T16:05:12.016Z,101247.09
2023-05-10T16:07:41.715Z,101256.41
2023-05-10T16:10:15.713Z,101259.53
2023-05-10T16:12:43.941Z,101256.00
2023-05-10T16:15:13.799Z,101266.53
2023-05-10T16:17:42.426Z,101276.59
2023-05-10T16:20:11.512Z,101281.28
2023-05-10T16:22:40.034Z,101279.28
2023-05-10T16:25:10.643Z,101282.34
2023-05-10T16:27:40.406Z,101273.00
2023-05-10T16:30:10.286Z,101278.84
2023-05-10T16:32:40.064Z,101284.31
2023-05-10T16:35:10.160Z,101282.75
2023-05-10T16:37:38.368Z,101285.88
2023-05-10T16:40:08.945Z,101283.84
2023-05-10T16:42:37.251Z,101280.34
2023-05-10T16:45:08.988Z,101286.97
2023-05-10T16:47:40.281Z,101286.53
2023-05-10T16:50:09.902Z,101285.75
2023-05-10T16:52:38.904Z,101291.97
2023-05-10T16:55:08.302Z,101289.63
2023-05-10T16:57:36.553Z,101293.50
2023-05-10T17:00:05.311Z,101287.25
2023-05-10T17:02:33.832Z,101291.91
2023-05-10T17:05:03.503Z,101297.75
2023-05-10T17:07:31.780Z,101302.81
2023-05-10T17:10:00.237Z,101291.13
2023-05-10T17:12:28.518Z,101301.25
2023-05-10T17:14:56.845Z,101296.94
2023-05-10T17:17:25.245Z,101300.84
2023-05-10T17:19:53.519Z,101292.28
2023-05-10T17:22:23.110Z,101303.88
2023-05-10T17:24:51.645Z,101293.75
2023-05-10T17:27:19.875Z,101290.59
2023-05-10T17:29:48.238Z,101287.47
2023-05-10T17:32:16.612Z,101280.06
2023-05-10T17:34:45.100Z,101291.34
2023-05-10T17:37:13.352Z,101293.31
2023-05-10T17:39:43.021Z,101294.47
2023-05-10T17:42:12.388Z,101290.13
2023-05-10T17:44:40.575Z,101287.78
2023-05-10T17:47:08.831Z,101282.31
2023-05-10T17:49:37.108Z,101285.47
2023-05-10T17:52:05.374Z,101286.97
2023-05-10T17:54:33.636Z,101285.81
2023-05-10T17:57:03.787Z,101286.97
2023-05-10T17:59:32.060Z,101293.56
2023-05-10T18:02:00.235Z,101294.72
2023-05-10T18:04:28.544Z,101295.09
2023-05-10T18:07:01.378Z,101291.91
2023-05-10T18:09:30.534Z,101302.41
2023-05-10T18:11:58.743Z,101301.47
2023-05-10T18:14:39.981Z,101296.03
2023-05-10T18:17:09.473Z,101302.66
2023-05-10T18:19:38.017Z,101306.97
2023-05-10T18:22:08.106Z,101311.16
2023-05-10T18:24:39.916Z,101311.47
2023-05-10T18:27:09.445Z,101305.25
2023-05-10T18:29:39.183Z,101306.81
2023-05-10T18:32:08.183Z,101307.59
2023-05-10T18:34:36.394Z,101314.63
2023-05-10T18:37:07.426Z,101309.16
2023-05-10T18:39:36.309Z,101308.38
2023-05-10T18:42:05.568Z,101319.66
2023-05-10T18:44:34.297Z,101319.22
2023-05-10T18:47:03.936Z,101328.22
2023-05-10T18:49:32.455Z,101325.03
2023-05-10T18:52:00.910Z,101335.94
2023-05-10T18:54:29.735Z,101336.28
2023-05-10T18:56:58.757Z,101333.16
2023-05-10T18:59:28.951Z,101334.34
2023-05-10T19:01:57.718Z,101342.50
2023-05-10T19:04:27.600Z,101333.16
2023-05-10T19:06:56.310Z,101350.28
2023-05-10T19:09:24.824Z,101349.50
2023-05-10T19:11:53.288Z,101343.28
2023-05-10T19:14:22.477Z,101344.41
2023-05-10T19:16:53.200Z,101347.13
2023-05-10T19:19:23.605Z,101347.13
2023-05-10T19:21:55.676Z,101347.13
2023-05-10T19:24:25.646Z,101336.97
2023-05-10T19:26:55.858Z,101350.19
2023-05-10T19:29:25.582Z,101349.00
2023-05-10T19:31:54.837Z,101357.97
2023-05-10T19:34:24.053Z,101348.22
2023-05-10T19:36:53.669Z,101354.47
2023-05-10T19:39:21.921Z,101356.81
2023-05-10T19:41:50.348Z,101351.75
2023-05-10T19:44:18.906Z,101354.09
2023-05-10T19:46:47.692Z,101364.19
2023-05-10T19:49:15.951Z,101370.44
2023-05-10T19:51:44.503Z,101361.47
2023-05-10T19:54:14.087Z,101364.19
2023-05-10T19:56:42.331Z,101355.66
2023-05-10T19:59:10.551Z,101361.84
2023-05-10T20:01:38.961Z,101358.69
2023-05-10T20:04:07.484Z,101363.34
2023-05-10T20:06:35.864Z,101357.91
2023-05-10T20:09:04.181Z,101363.34
2023-05-10T20:11:33.816Z,101357.13
2023-05-10T20:14:02.122Z,101356.34
2023-05-10T20:16:30.553Z,101358.66
2023-05-10T20:18:58.836Z,101363.34
2023-05-10T20:21:27.482Z,101360.53
2023-05-10T20:23:55.731Z,101363.22
2023-05-10T20:26:24.471Z,101364.34
2023-05-10T20:28:54.051Z,101363.13
2023-05-10T20:31:22.363Z,101358.09
2023-05-10T20:33:50.647Z,101361.50
2023-05-10T20:36:18.875Z,101363.00
2023-05-10T20:38:47.133Z,101358.31
2023-05-10T20:41:15.307Z,101354.75
2023-05-10T20:43:43.530Z,101360.47
2023-05-10T20:46:13.277Z,101362.34
2023-05-10T20:48:41.605Z,101358.81
2023-05-10T20:51:10.009Z,101371.97
2023-05-10T20:53:38.234Z,101369.59
2023-05-10T20:56:07.257Z,101368.41
2023-05-10T20:58:35.516Z,101379.66
2023-05-10T21:01:03.802Z,101382.72
2023-05-10T21:03:33.368Z,101382.31
2023-05-10T21:06:01.533Z,101379.97
2023-05-10T21:08:29.781Z,101383.84
2023-05-10T21:10:58.031Z,101386.53
2023-05-10T21:13:26.359Z,101378.72
2023-05-10T21:15:55.163Z,101393.56
2023-05-10T21:18:23.455Z,101389.69
2023-05-10T21:20:53.104Z,101386.19
2023-05-10T21:23:21.403Z,101395.91
2023-05-10T21:25:50.670Z,101389.31
2023-05-10T21:28:18.876Z,101398.25
2023-05-10T21:30:47.835Z,101391.28
2023-05-10T21:33:16.175Z,101390.47
2023-05-10T21:35:44.541Z,101392.03
2023-05-10T21:38:14.213Z,101393.19
2023-05-10T21:40:42.741Z,101382.72
2023-05-10T21:43:11.315Z,101394.47
2023-05-10T21:45:39.822Z,101389.44
2023-05-10T21:48:08.157Z,101391.81
2023-05-10T21:50:36.706Z,101396.91
2023-05-10T21:53:04.993Z,101386.03
2023-05-10T21:55:34.691Z,101396.44
2023-05-10T21:58:02.915Z,101392.91
2023-05-10T22:00:32.840Z,101393.59
2023-05-10T22:03:02.683Z,101392.91
2023-05-10T22:05:30.952Z,101389.03
2023-05-10T22:07:59.230Z,101394.09
2023-05-10T22:10:27.397Z,101393.72
2023-05-10T22:12:57.264Z,101393.31
2023-05-10T22:15:25.556Z,101399.03
2023-05-10T22:17:54.848Z,101395.16
2023-05-10T22:20:23.251Z,101395.13
2023-05-10T22:22:51.468Z,101398.25
2023-05-10T22:25:19.929Z,101399.03
2023-05-10T22:27:48.499Z,101399.78
2023-05-10T22:30:19.921Z,101402.91
2023-05-10T22:32:48.858Z,101409.09
2023-05-10T22:35:17.071Z,101406.81
2023-05-10T22:37:45.268Z,101405.63
2023-05-10T22:40:14.235Z,101401.38
2023-05-10T22:42:42.495Z,101401.38
2023-05-10T22:45:12.308Z,101401.75
2023-05-10T22:47:41.940Z,101406.06
2023-05-10T22:50:11.119Z,101399.44
2023-05-10T22:52:39.947Z,101396.72
2023-05-10T22:55:09.148Z,101397.47
2023-05-10T22:57:37.589Z,101394.34
2023-05-10T23:00:08.084Z,101393.19
2023-05-10T23:02:36.556Z,101405.22
2023-05-10T23:05:07.823Z,101409.00
2023-05-10T23:07:36.282Z,101398.50
2023-05-10T23:10:04.873Z,101395.41
2023-05-10T23:12:33.862Z,101408.25
2023-05-10T23:15:02.060Z,101403.56
2023-05-10T23:17:30.251Z,101407.06
2023-05-10T23:19:58.596Z,101403.56
2023-05-10T23:22:28.102Z,101410.97
2023-05-10T23:24:56.455Z,101407.06
2023-05-10T23:27:24.642Z,101404.34
2023-05-10T23:29:55.580Z,101408.25
2023-05-10T23:32:23.911Z,101406.66
2023-05-10T23:34:52.220Z,101409.38
2023-05-10T23:37:20.511Z,101410.53
2023-05-10T23:39:50.080Z,101405.09
2023-05-10T23:42:18.279Z,101402.72
2023-05-10T23:44:46.771Z,101395.69
2023-05-10T23:47:15.006Z,101391.81
2023-05-10T23:49:43.215Z,101400.81
2023-05-10T23:52:11.577Z,101396.47
2023-05-10T23:54:39.760Z,101395.69
2023-05-10T23:57:09.353Z,101395.69
2023-05-10T23:59:37.558Z,101406.53
